Time;durP1;ratioP1;P1;durP2;ratioP2;P2;SDS_P1;SDS_P2;PMS_P1;PMS_P2;Temp;Humidity;BMP_temperature;BMP_pressure;BME280_temperature;BME280_humidity;BME280_pressure;Samples;Min_cycle;Max_cycle;Signal;HPM_P1;HPM_P2
2023/02/07 00:00:07;;;;;;;115.10;55.70;;;;;;;-4.79;81.17;102434.54;103579;1255;106104;-71
2023/02/07 00:02:58;;;;;;;114.50;56.30;;;;;;;-4.74;80.97;102426.91;103112;1257;97818;-72
2023/02/07 00:05:39;;;;;;;121.60;57.90;;;;;;;-4.72;80.91;102423.45;103023;1260;107582;-71
2023/02/07 00:08:06;;;;;;;123.60;58.80;;;;;;;-4.69;81.02;102422.66;101791;1256;1002930;-72
2023/02/07 00:10:54;;;;;;;118.80;58.50;;;;;;;-4.64;80.69;102420.95;102502;1256;1003272;-72
2023/02/07 00:13:21;;;;;;;118.90;58.30;;;;;;;-4.61;80.76;102419.98;102815;1257;139435;-71
2023/02/07 00:15:53;;;;;;;113.70;56.80;;;;;;;-4.55;80.74;102416.73;102974;1257;97873;-71
2023/02/07 00:18:20;;;;;;;111.60;56.40;;;;;;;-4.49;81.05;102413.90;103025;1257;106493;-71
2023/02/07 00:21:02;;;;;;;107.10;53.90;;;;;;;-4.46;80.64;102403.59;103024;1260;97874;-73
2023/02/07 00:23:33;;;;;;;116.50;56.80;;;;;;;-4.42;80.78;102392.63;103070;1260;111828;-72
2023/02/07 00:26:07;;;;;;;117.80;58.80;;;;;;;-4.40;80.59;102392.76;102852;1258;139026;-72
2023/02/07 00:28:38;;;;;;;115.70;58.30;;;;;;;-4.38;80.65;102392.88;102962;1260;98305;-72
2023/02/07 00:31:09;;;;;;;123.70;58.80;;;;;;;-4.38;80.40;102396.11;102152;1258;1003044;-72
2023/02/07 00:33:37;;;;;;;116.80;57.70;;;;;;;-4.36;80.26;102396.73;103389;1257;1003105;-72
2023/02/07 00:36:06;;;;;;;113.00;57.30;;;;;;;-4.38;80.22;102394.75;103058;1258;111267;-71
2023/02/07 00:38:34;;;;;;;115.80;58.10;;;;;;;-4.40;80.49;102401.95;102935;1257;139098;-72
2023/02/07 00:41:01;;;;;;;112.90;58.30;;;;;;;-4.39;80.34;102406.23;103018;1260;97799;-72
2023/02/07 00:43:32;;;;;;;118.80;58.40;;;;;;;-4.40;80.18;102406.18;102942;1258;138783;-72
2023/02/07 00:46:04;;;;;;;117.70;58.40;;;;;;;-4.48;80.08;102415.67;102916;1257;97815;-71
2023/02/07 00:48:32;;;;;;;122.80;57.70;;;;;;;-4.52;79.94;102412.34;102860;1258;111285;-73
2023/02/07 00:51:00;;;;;;;123.00;58.60;;;;;;;-4.53;80.10;102417.02;103019;1258;107711;-72
2023/02/07 00:53:29;;;;;;;113.70;56.90;;;;;;;-4.53;80.22;102413.30;102880;1260;98242;-73
2023/02/07 00:55:56;;;;;;;117.20;59.00;;;;;;;-4.52;80.61;102410.10;102733;1263;138890;-71
2023/02/07 00:58:24;;;;;;;114.00;57.70;;;;;;;-4.51;80.72;102402.88;102996;1257;97781;-71
2023/02/07 01:00:51;;;;;;;120.60;57.90;;;;;;;-4.52;80.54;102404.05;102901;1258;141381;-73
2023/02/07 01:03:19;;;;;;;115.30;57.10;;;;;;;-4.52;80.90;102398.11;102058;1257;1003014;-73
2023/02/07 01:05:47;;;;;;;119.60;58.60;;;;;;;-4.51;80.71;102394.08;102230;1258;1002972;-72
2023/02/07 01:08:17;;;;;;;121.20;58.50;;;;;;;-4.48;80.60;102387.13;102755;1257;139536;-73
2023/02/07 01:10:48;;;;;;;113.60;57.20;;;;;;;-4.48;81.21;102380.51;102145;1257;1003625;-72
2023/02/07 01:13:16;;;;;;;119.60;58.50;;;;;;;-4.49;81.09;102381.51;102925;1257;139370;-72
2023/02/07 01:15:48;;;;;;;121.40;58.80;;;;;;;-4.46;81.07;102394.05;102984;1260;107653;-72
2023/02/07 01:18:26;;;;;;;118.50;57.30;;;;;;;-4.42;81.10;102397.70;102993;1257;98336;-72
2023/02/07 01:20:53;;;;;;;114.40;56.50;;;;;;;-4.39;81.40;102406.41;102884;1257;138783;-72
2023/02/07 01:23:21;;;;;;;117.30;56.70;;;;;;;-4.37;81.48;102403.48;103015;1260;97838;-72
2023/02/07 01:25:55;;;;;;;110.50;57.60;;;;;;;-4.31;81.45;102403.00;102146;1257;1003098;-74
2023/02/07 01:28:28;;;;;;;114.40;58.30;;;;;;;-4.27;81.31;102402.43;102817;1261;108384;-73
2023/02/07 01:30:55;;;;;;;120.30;59.30;;;;;;;-4.23;81.64;102400.08;101389;1260;1003625;-72
2023/02/07 01:33:41;;;;;;;118.30;58.40;;;;;;;-4.20;81.32;102403.29;103047;1256;109015;-72
2023/02/07 01:36:15;;;;;;;114.40;57.00;;;;;;;-4.19;81.75;102405.77;103009;1260;98610;-72
2023/02/07 01:38:43;;;;;;;108.80;55.90;;;;;;;-4.15;81.76;102401.77;102886;1258;138848;-74
2023/02/07 01:41:31;;;;;;;105.00;55.30;;;;;;;-4.14;81.33;102400.79;103052;1259;107040;-74
2023/02/07 01:44:04;;;;;;;104.70;54.30;;;;;;;-4.12;81.43;102400.11;102938;1260;139630;-74
2023/02/07 01:46:52;;;;;;;108.00;54.40;;;;;;;-4.09;81.51;102402.64;103130;1257;107656;-74
2023/02/07 01:49:35;;;;;;;109.50;54.80;;;;;;;-4.06;81.82;102402.35;102246;1258;1002876;-75
2023/02/07 01:52:19;;;;;;;106.00;53.50;;;;;;;-4.01;81.65;102395.83;103053;1258;111312;-72
2023/02/07 01:54:51;;;;;;;99.00;51.40;;;;;;;-3.97;81.68;102388.61;102965;1259;140589;-73
2023/02/07 01:57:38;;;;;;;101.90;52.90;;;;;;;-3.93;81.97;102390.08;102180;1257;1002894;-73
2023/02/07 02:00:17;;;;;;;106.20;53.10;;;;;;;-3.89;81.86;102394.02;102954;1257;107397;-73
2023/02/07 02:02:47;;;;;;;105.20;52.60;;;;;;;-3.86;81.67;102396.42;102918;1261;139049;-73
2023/02/07 02:05:28;;;;;;;108.90;54.30;;;;;;;-3.82;81.87;102390.01;103042;1258;111394;-73
2023/02/07 02:07:58;;;;;;;103.70;51.90;;;;;;;-3.79;82.07;102390.89;103001;1257;138977;-71
2023/02/07 02:10:32;;;;;;;99.60;50.50;;;;;;;-3.77;81.77;102387.80;103087;1259;98337;-72
2023/02/07 02:13:23;;;;;;;99.70;51.00;;;;;;;-3.75;81.94;102391.48;102887;1258;138822;-72
2023/02/07 02:16:34;;;;;;;97.40;50.10;;;;;;;-3.71;82.14;102390.70;103009;1259;97806;-72
2023/02/07 02:19:39;;;;;;;99.70;49.40;;;;;;;-3.70;82.16;102392.66;102926;1258;138839;-72
2023/02/07 02:22:24;;;;;;;94.40;49.50;;;;;;;-3.66;82.08;102399.84;102262;1260;1003778;-73
2023/02/07 02:25:43;;;;;;;94.30;48.80;;;;;;;-3.63;81.90;102395.08;102927;1259;139517;-73
2023/02/07 02:28:32;;;;;;;90.10;47.30;;;;;;;-3.59;82.27;102396.52;102600;1262;107946;-73
2023/02/07 02:31:33;;;;;;;88.90;47.20;;;;;;;-3.59;81.93;102395.70;102440;1265;139021;-73
2023/02/07 02:34:30;;;;;;;93.20;46.70;;;;;;;-3.59;82.02;102400.89;102575;1263;111750;-72
2023/02/07 02:37:06;;;;;;;91.90;48.30;;;;;;;-3.60;81.84;102397.13;102390;1264;139114;-72
2023/02/07 02:39:45;;;;;;;90.70;46.80;;;;;;;-3.59;82.12;102399.73;102605;1264;97689;-73
2023/02/07 02:42:18;;;;;;;99.00;47.20;;;;;;;-3.60;81.81;102395.92;102669;1261;107919;-73
2023/02/07 02:44:52;;;;;;;88.80;45.30;;;;;;;-3.59;82.58;102384.05;102235;1265;328107;-74
2023/02/07 02:47:20;;;;;;;87.90;45.80;;;;;;;-3.61;82.12;102384.13;102623;1261;110585;-73
2023/02/07 02:49:49;;;;;;;89.80;46.20;;;;;;;-3.63;82.46;102384.39;102397;1263;139122;-74
2023/02/07 02:52:23;;;;;;;90.90;46.20;;;;;;;-3.62;82.41;102389.55;102570;1266;98430;-74
2023/02/07 02:55:11;;;;;;;90.10;44.50;;;;;;;-3.62;82.26;102394.10;102387;1263;138965;-74
2023/02/07 02:57:51;;;;;;;89.90;44.90;;;;;;;-3.61;82.64;102397.21;102544;1266;97935;-73
2023/02/07 03:00:32;;;;;;;87.10;45.40;;;;;;;-3.59;82.92;102390.90;102598;1267;111746;-73
2023/02/07 03:03:16;;;;;;;85.60;43.70;;;;;;;-3.57;82.98;102388.46;102525;1266;106610;-72
2023/02/07 03:05:58;;;;;;;84.40;44.40;;;;;;;-3.55;82.70;102386.05;102922;1257;97802;-72
2023/02/07 03:08:43;;;;;;;78.30;41.20;;;;;;;-3.50;83.15;102385.34;102864;1261;138685;-73
2023/02/07 03:11:14;;;;;;;83.40;42.60;;;;;;;-3.46;83.66;102380.81;102892;1259;97799;-72
2023/02/07 03:14:06;;;;;;;84.00;43.40;;;;;;;-3.43;83.34;102382.50;102238;1259;1003477;-71
2023/02/07 03:16:40;;;;;;;84.40;42.70;;;;;;;-3.41;83.72;102380.75;102978;1257;1002493;-73
2023/02/07 03:19:13;;;;;;;80.40;41.60;;;;;;;-3.40;83.49;102382.03;102494;1258;1002393;-72
2023/02/07 03:21:54;;;;;;;80.40;42.10;;;;;;;-3.38;83.46;102382.65;103578;1258;107257;-73
2023/02/07 03:24:45;;;;;;;76.40;41.10;;;;;;;-3.33;83.68;102376.10;102938;1258;139711;-74
2023/02/07 03:27:24;;;;;;;83.60;41.70;;;;;;;-3.27;83.57;102374.20;103190;1260;111341;-74
2023/02/07 03:30:16;;;;;;;81.20;41.70;;;;;;;-3.22;83.83;102368.92;103012;1259;107969;-74
2023/02/07 03:32:47;;;;;;;80.10;42.10;;;;;;;-3.18;84.14;102365.91;103135;1257;138865;-74
2023/02/07 03:35:24;;;;;;;77.00;41.40;;;;;;;-3.14;83.67;102360.86;103047;1258;1003784;-74
2023/02/07 03:37:55;;;;;;;76.00;40.60;;;;;;;-3.13;83.75;102361.27;103086;1256;138983;-74
2023/02/07 03:40:42;;;;;;;77.80;40.50;;;;;;;-3.11;83.35;102367.02;103146;1258;111488;-74
2023/02/07 03:43:26;;;;;;;81.10;40.90;;;;;;;-3.08;83.83;102373.27;102903;1257;139004;-73
2023/02/07 03:45:54;;;;;;;72.80;40.00;;;;;;;-3.03;84.04;102372.22;102282;1261;1003752;-73
2023/02/07 03:48:22;;;;;;;75.90;39.60;;;;;;;-2.99;83.86;102372.12;102948;1259;108227;-73
2023/02/07 03:50:51;;;;;;;73.40;39.70;;;;;;;-2.95;83.95;102370.95;102182;1260;1140736;-74
2023/02/07 03:53:19;;;;;;;73.40;40.70;;;;;;;-2.93;83.52;102371.73;102303;1258;1003008;-74
2023/02/07 03:55:46;;;;;;;71.70;39.70;;;;;;;-2.93;83.85;102367.02;103077;1254;139073;-75
2023/02/07 03:58:13;;;;;;;70.70;39.80;;;;;;;-2.92;83.89;102368.09;103141;1254;98027;-74
2023/02/07 04:00:51;;;;;;;72.80;40.10;;;;;;;-2.89;83.81;102365.17;103119;1256;138832;-73
2023/02/07 04:03:23;;;;;;;73.60;40.30;;;;;;;-2.88;83.79;102366.77;102485;1256;1002657;-74
2023/02/07 04:06:11;;;;;;;72.50;39.10;;;;;;;-2.86;83.86;102371.80;103281;1254;111298;-74
2023/02/07 04:08:38;;;;;;;72.40;39.80;;;;;;;-2.84;83.73;102374.68;102381;1256;1003443;-74
2023/02/07 04:11:07;;;;;;;72.90;39.20;;;;;;;-2.82;83.56;102373.56;103338;1258;97803;-73
2023/02/07 04:13:54;;;;;;;70.20;37.80;;;;;;;-2.80;83.78;102375.39;102417;1253;1002861;-74
2023/02/07 04:16:22;;;;;;;70.60;37.00;;;;;;;-2.77;83.84;102376.25;103291;1256;97877;-75
2023/02/07 04:18:49;;;;;;;69.70;37.70;;;;;;;-2.73;84.17;102378.84;103206;1258;139387;-75
2023/02/07 04:21:16;;;;;;;67.50;36.70;;;;;;;-2.70;84.07;102377.67;103274;1259;106857;-75
2023/02/07 04:23:48;;;;;;;68.00;37.20;;;;;;;-2.67;84.04;102374.11;103357;1253;98360;-75
2023/02/07 04:26:18;;;;;;;65.00;35.70;;;;;;;-2.63;84.11;102369.35;102375;1253;1003018;-75
2023/02/07 04:28:45;;;;;;;70.00;38.10;;;;;;;-2.62;83.90;102364.47;103367;1253;97801;-74
2023/02/07 04:31:12;;;;;;;69.70;37.60;;;;;;;-2.61;83.90;102362.70;102407;1254;1003350;-74
2023/02/07 04:33:42;;;;;;;67.50;36.30;;;;;;;-2.58;84.01;102363.86;103307;1256;107708;-75
2023/02/07 04:36:12;;;;;;;67.50;36.30;;;;;;;-2.56;83.86;102363.27;102598;1253;1003607;-75
2023/02/07 04:38:43;;;;;;;62.70;35.60;;;;;;;-2.55;84.24;102358.90;103154;1253;138970;-75
2023/02/07 04:41:30;;;;;;;63.00;35.20;;;;;;;-2.54;84.02;102353.33;102482;1256;1003477;-75
2023/02/07 04:43:59;;;;;;;63.40;35.90;;;;;;;-2.54;83.95;102345.50;102394;1253;1003607;-75
2023/02/07 04:46:29;;;;;;;61.80;33.00;;;;;;;-2.51;84.05;102347.23;102359;1254;1003457;-76
2023/02/07 04:48:56;;;;;;;64.00;34.20;;;;;;;-2.50;84.09;102352.21;103200;1253;139578;-75
2023/02/07 04:51:44;;;;;;;64.10;34.60;;;;;;;-2.50;84.04;102351.05;103287;1254;107365;-74
2023/02/07 04:54:14;;;;;;;64.00;33.20;;;;;;;-2.49;83.93;102356.56;103310;1253;97781;-74
2023/02/07 04:56:44;;;;;;;61.30;32.00;;;;;;;-2.47;83.98;102352.36;103098;1255;140911;-75
2023/02/07 04:59:21;;;;;;;59.70;32.10;;;;;;;-2.46;83.98;102353.62;103140;1258;107480;-75
2023/02/07 05:01:48;;;;;;;58.70;31.60;;;;;;;-2.44;83.85;102353.02;103225;1254;139010;-74
2023/02/07 05:04:36;;;;;;;53.30;29.20;;;;;;;-2.43;83.96;102354.80;103129;1255;106422;-74
2023/02/07 05:07:06;;;;;;;57.40;29.80;;;;;;;-2.41;83.92;102360.00;103103;1257;139245;-74
2023/02/07 05:09:35;;;;;;;55.20;29.70;;;;;;;-2.38;84.03;102361.16;103224;1254;111462;-73
2023/02/07 05:12:03;;;;;;;50.60;27.30;;;;;;;-2.36;84.34;102357.35;102423;1254;1002931;-73
2023/02/07 05:14:30;;;;;;;49.70;28.00;;;;;;;-2.35;84.10;102361.70;103088;1254;139361;-76
2023/02/07 05:17:00;;;;;;;50.30;28.10;;;;;;;-2.33;84.00;102367.59;103133;1256;107514;-75
2023/02/07 05:19:30;;;;;;;51.10;27.20;;;;;;;-2.31;84.03;102369.06;103110;1258;138968;-74
2023/02/07 05:21:56;;;;;;;51.30;27.50;;;;;;;-2.30;83.99;102363.86;103136;1258;111224;-76
2023/02/07 05:24:24;;;;;;;52.10;27.80;;;;;;;-2.30;83.84;102360.64;103210;1257;107162;-75
2023/02/07 05:27:04;;;;;;;48.00;27.70;;;;;;;-2.29;84.04;102368.48;103258;1258;97793;-77
2023/02/07 05:29:41;;;;;;;49.10;26.00;;;;;;;-2.31;83.75;102366.69;103239;1257;107951;-76
2023/02/07 05:34:57;;;;;;;45.10;25.60;;;;;;;-2.33;83.85;102356.16;104541;1254;111238;-76
2023/02/07 05:37:24;;;;;;;47.80;26.20;;;;;;;-2.35;84.26;102354.53;104562;1256;140990;-77
2023/02/07 05:39:51;;;;;;;46.30;26.20;;;;;;;-2.35;84.19;102355.91;103645;1259;1003102;-77
2023/02/07 05:42:32;;;;;;;49.40;27.10;;;;;;;-2.34;84.12;102347.80;103243;1259;107830;-76
2023/02/07 05:44:59;;;;;;;48.60;25.00;;;;;;;-2.32;84.18;102349.58;103083;1258;138903;-76
2023/02/07 05:47:26;;;;;;;48.20;26.30;;;;;;;-2.31;84.15;102354.40;103222;1254;111807;-76
2023/02/07 05:49:53;;;;;;;43.70;25.50;;;;;;;-2.31;83.91;102357.84;103141;1256;138802;-78
2023/02/07 05:52:33;;;;;;;44.50;24.60;;;;;;;-2.30;84.12;102352.09;103212;1256;99802;-77
2023/02/07 05:55:01;;;;;;;48.70;25.30;;;;;;;-2.29;84.13;102349.05;103074;1257;138921;-76
2023/02/07 05:57:29;;;;;;;46.90;25.80;;;;;;;-2.29;84.21;102348.75;103184;1254;97798;-77
2023/02/07 05:59:59;;;;;;;44.30;24.50;;;;;;;-2.28;84.13;102352.89;102457;1259;1003666;-77
2023/02/07 06:02:30;;;;;;;43.80;23.70;;;;;;;-2.27;84.34;102363.30;102407;1256;1003004;-76
2023/02/07 06:05:08;;;;;;;45.20;23.60;;;;;;;-2.26;84.36;102362.70;102436;1259;1002847;-76
2023/02/07 06:07:35;;;;;;;39.30;23.10;;;;;;;-2.25;84.42;102363.41;103140;1255;139151;-77
2023/02/07 06:10:04;;;;;;;44.50;24.50;;;;;;;-2.26;84.41;102365.61;103212;1254;97844;-78
2023/02/07 06:12:31;;;;;;;40.90;23.10;;;;;;;-2.23;84.14;102360.10;103115;1259;111116;-80
2023/02/07 06:15:01;;;;;;;44.90;25.60;;;;;;;-2.21;84.35;102362.45;103161;1259;108589;-81
2023/02/07 06:17:29;;;;;;;41.20;23.50;;;;;;;-2.19;84.35;102357.10;103263;1254;97802;-73
2023/02/07 06:20:08;;;;;;;45.10;23.90;;;;;;;-2.17;84.33;102359.06;103081;1256;138832;-76
2023/02/07 06:22:35;;;;;;;39.20;22.00;;;;;;;-2.16;84.06;102357.10;103318;1259;97618;-79
2023/02/07 06:25:01;;;;;;;39.30;21.90;;;;;;;-2.14;84.35;102353.11;103146;1256;138913;-79
2023/02/07 06:27:30;;;;;;;41.80;22.10;;;;;;;-2.13;84.36;102351.80;103168;1259;107334;-76
2023/02/07 06:30:00;;;;;;;39.20;21.30;;;;;;;-2.11;84.36;102351.91;103170;1254;97692;-78
2023/02/07 06:32:31;;;;;;;40.90;22.70;;;;;;;-2.10;84.56;102350.44;102403;1256;1003387;-79
2023/02/07 06:35:13;;;;;;;41.30;22.70;;;;;;;-2.08;84.37;102356.48;103225;1254;97907;-77
2023/02/07 06:37:45;;;;;;;44.30;22.70;;;;;;;-2.09;83.94;102361.24;103119;1257;139152;-79
2023/02/07 06:40:13;;;;;;;36.20;21.10;;;;;;;-2.06;84.29;102360.18;103271;1259;107824;-78
2023/02/07 06:42:52;;;;;;;43.40;21.70;;;;;;;-2.04;84.31;102359.95;103021;1258;139057;-78
2023/02/07 06:45:19;;;;;;;41.50;21.90;;;;;;;-2.02;84.52;102360.90;102321;1259;1003078;-78
2023/02/07 06:47:58;;;;;;;40.50;22.60;;;;;;;-1.99;84.32;102365.98;102018;1256;1003006;-78
2023/02/07 06:50:25;;;;;;;44.60;22.10;;;;;;;-1.98;84.02;102365.55;102966;1257;139030;-79
2023/02/07 06:53:12;;;;;;;36.20;20.40;;;;;;;-1.94;84.25;102370.89;103124;1257;108101;-75
2023/02/07 06:55:40;;;;;;;34.60;20.50;;;;;;;-1.90;84.19;102373.31;103044;1254;139081;-80
2023/02/07 06:58:13;;;;;;;34.10;19.90;;;;;;;-1.85;84.19;102375.45;103085;1257;108625;-78
2023/02/07 07:00:44;;;;;;;38.00;20.90;;;;;;;-1.82;84.23;102376.45;103119;1253;138781;-77
2023/02/07 07:03:15;;;;;;;36.40;19.50;;;;;;;-1.76;84.20;102374.88;103183;1254;110953;-76
2023/02/07 07:05:43;;;;;;;34.90;19.50;;;;;;;-1.71;84.32;102380.26;103268;1259;107586;-77
2023/02/07 07:08:17;;;;;;;32.00;18.90;;;;;;;-1.65;84.26;102380.71;103170;1259;139413;-74
2023/02/07 07:10:44;;;;;;;35.70;19.00;;;;;;;-1.61;84.12;102381.13;102264;1259;1002822;-75
2023/02/07 07:13:11;;;;;;;34.50;19.20;;;;;;;-1.58;83.91;102382.15;103063;1259;139094;-78
2023/02/07 07:15:39;;;;;;;37.20;19.80;;;;;;;-1.54;83.83;102376.85;103212;1256;112500;-77
2023/02/07 07:18:09;;;;;;;32.60;18.30;;;;;;;-1.51;83.51;102377.71;102425;1259;1003039;-76
2023/02/07 07:20:57;;;;;;;32.00;18.90;;;;;;;-1.45;83.42;102374.06;103029;1257;138880;-79
2023/02/07 07:23:24;;;;;;;29.80;17.70;;;;;;;-1.41;83.37;102378.06;103153;1257;107565;-75
2023/02/07 07:25:52;;;;;;;32.00;18.10;;;;;;;-1.36;83.25;102382.57;103185;1257;138765;-75
2023/02/07 07:28:19;;;;;;;32.60;18.20;;;;;;;-1.32;83.42;102380.22;103257;1256;111425;-74
2023/02/07 07:31:05;;;;;;;35.20;18.20;;;;;;;-1.28;83.33;102381.08;103077;1259;138881;-75
2023/02/07 07:33:33;;;;;;;32.80;18.20;;;;;;;-1.25;83.08;102379.39;103462;1259;97701;-74
2023/02/07 07:36:02;;;;;;;30.30;17.70;;;;;;;-1.20;83.40;102384.03;102424;1259;1002695;-74
2023/02/07 07:38:30;;;;;;;30.30;18.40;;;;;;;-1.16;83.10;102384.06;103193;1259;138883;-74
2023/02/07 07:40:58;;;;;;;32.30;18.40;;;;;;;-1.12;82.96;102387.85;102514;1259;1002957;-74
2023/02/07 07:43:25;;;;;;;31.00;17.50;;;;;;;-1.08;82.78;102387.54;103052;1259;138953;-73
2023/02/07 07:45:55;;;;;;;29.90;17.70;;;;;;;-1.03;82.65;102391.91;103210;1254;97810;-74
2023/02/07 07:48:23;;;;;;;32.90;17.70;;;;;;;-0.99;82.63;102401.84;103275;1259;108567;-76
2023/02/07 07:50:53;;;;;;;34.90;17.60;;;;;;;-0.95;82.60;102403.40;103148;1260;138949;-76
2023/02/07 07:53:21;;;;;;;29.10;18.00;;;;;;;-0.89;82.61;102406.06;103267;1257;110805;-75
2023/02/07 07:55:52;;;;;;;31.00;17.50;;;;;;;-0.86;82.53;102404.88;103045;1259;138664;-77
2023/02/07 07:58:23;;;;;;;30.30;18.00;;;;;;;-0.82;82.26;102409.34;103165;1259;97880;-76
2023/02/07 08:00:50;;;;;;;35.00;17.70;;;;;;;-0.78;82.20;102411.59;103062;1256;141397;-76
2023/02/07 08:03:19;;;;;;;33.10;18.10;;;;;;;-0.73;82.25;102415.89;103115;1259;98169;-71
2023/02/07 08:05:47;;;;;;;30.50;17.40;;;;;;;-0.71;82.34;102423.23;103109;1254;111187;-72
2023/02/07 08:08:15;;;;;;;31.20;18.00;;;;;;;-0.68;82.06;102423.19;103046;1260;138767;-71
2023/02/07 08:10:42;;;;;;;32.70;17.00;;;;;;;-0.64;81.89;102429.34;103107;1259;98319;-71
2023/02/07 08:13:30;;;;;;;30.30;17.60;;;;;;;-0.62;81.90;102432.87;102240;1259;1002985;-70
2023/02/07 08:16:09;;;;;;;29.50;16.30;;;;;;;-0.62;81.68;102436.96;103105;1254;98549;-70
2023/02/07 08:18:37;;;;;;;30.80;16.80;;;;;;;-0.62;81.62;102438.16;103228;1260;110697;-70
2023/02/07 08:21:05;;;;;;;32.20;18.10;;;;;;;-0.58;81.64;102437.95;103099;1260;108483;-72
2023/02/07 08:23:36;;;;;;;31.90;17.50;;;;;;;-0.56;81.51;102436.02;102419;1259;1003467;-72
2023/02/07 08:26:13;;;;;;;31.60;18.00;;;;;;;-0.52;81.67;102435.20;102932;1255;138887;-71
2023/02/07 08:28:51;;;;;;;32.40;17.70;;;;;;;-0.51;81.42;102440.04;103143;1254;97694;-71
2023/02/07 08:31:28;;;;;;;30.50;16.60;;;;;;;-0.48;81.35;102439.67;103023;1260;138483;-71
2023/02/07 08:34:10;;;;;;;28.10;17.30;;;;;;;-0.45;81.31;102440.83;103079;1256;107578;-73
2023/02/07 08:36:38;;;;;;;31.30;18.10;;;;;;;-0.43;81.14;102440.42;103060;1259;98875;-75
2023/02/07 08:39:08;;;;;;;31.40;17.70;;;;;;;-0.41;81.02;102440.66;103203;1260;107897;-72
2023/02/07 08:41:35;;;;;;;30.70;17.70;;;;;;;-0.40;81.12;102439.02;102359;1258;1002961;-74
2023/02/07 08:44:06;;;;;;;28.90;17.50;;;;;;;-0.39;81.10;102439.25;103060;1260;139247;-75
2023/02/07 08:46:33;;;;;;;32.60;18.70;;;;;;;-0.36;81.07;102435.27;102395;1260;1002611;-74
2023/02/07 08:49:00;;;;;;;27.80;17.30;;;;;;;-0.33;81.04;102440.23;103016;1260;139146;-74
2023/02/07 08:51:28;;;;;;;30.50;16.90;;;;;;;-0.30;81.09;102440.02;102252;1260;1003720;-73
2023/02/07 08:53:55;;;;;;;30.30;17.80;;;;;;;-0.28;80.94;102439.77;103050;1254;97849;-73
2023/02/07 08:56:26;;;;;;;31.10;16.90;;;;;;;-0.26;80.87;102444.63;102887;1260;138989;-73
2023/02/07 08:58:53;;;;;;;34.00;18.20;;;;;;;-0.24;80.85;102447.66;102337;1260;1003722;-74
2023/02/07 09:01:23;;;;;;;31.40;17.80;;;;;;;-0.21;80.80;102451.17;103041;1260;138880;-72
2023/02/07 09:03:50;;;;;;;28.90;17.70;;;;;;;-0.19;80.82;102450.43;102463;1254;1003376;-72
2023/02/07 09:06:36;;;;;;;;;;;;;;;-0.14;80.82;102449.99;103247;1261;97830;-73
2023/02/07 09:09:23;;;;;;;29.90;17.40;;;;;;;-0.11;80.58;102454.06;102478;1254;1015924;-73
2023/02/07 09:11:51;;;;;;;27.60;16.70;;;;;;;-0.07;80.61;102454.79;103269;1254;107956;-72
2023/02/07 09:14:38;;;;;;;28.90;16.40;;;;;;;-0.08;80.22;102455.74;103074;1262;138716;-74
2023/02/07 09:17:08;;;;;;;30.00;16.00;;;;;;;-0.05;80.20;102454.70;103190;1258;108681;-71
2023/02/07 09:19:46;;;;;;;25.20;16.00;;;;;;;-0.03;80.22;102451.55;102915;1254;138838;-72
2023/02/07 09:23:16;;;;;;;27.80;15.90;;;;;;;0.03;80.15;102455.04;103223;1254;111302;-73
2023/02/07 09:25:32;;;;;;;28.90;15.70;;;;;;;0.04;79.86;102452.38;103089;1257;138447;-73
2023/02/07 09:28:00;;;;;;;27.90;16.10;;;;;;;0.03;79.79;102449.42;103268;1259;99466;-71
2023/02/07 09:30:48;;;;;;;28.80;15.60;;;;;;;0.06;79.73;102451.42;103149;1254;108775;-72
2023/02/07 09:33:22;;;;;;;29.50;16.10;;;;;;;0.09;79.66;102448.15;103204;1258;97794;-72
2023/02/07 09:35:49;;;;;;;25.50;15.10;;;;;;;0.12;79.62;102437.30;103221;1254;111398;-73
2023/02/07 09:38:20;;;;;;;27.60;15.80;;;;;;;0.14;79.55;102436.05;102277;1257;1003135;-71
2023/02/07 09:40:58;;;;;;;28.30;15.90;;;;;;;0.16;79.28;102434.77;103173;1254;97740;-72
2023/02/07 09:43:38;;;;;;;28.20;15.50;;;;;;;0.19;79.23;102435.26;103110;1260;138496;-71
2023/02/07 09:46:19;;;;;;;28.90;16.10;;;;;;;0.21;79.22;102432.78;103074;1258;97797;-71
2023/02/07 09:48:52;;;;;;;29.60;15.60;;;;;;;0.22;79.02;102433.02;102866;1254;110780;-71
2023/02/07 09:51:31;;;;;;;25.60;15.30;;;;;;;0.23;78.95;102433.72;103089;1255;107431;-73
2023/02/07 09:54:03;;;;;;;28.10;15.50;;;;;;;0.24;79.01;102434.66;103152;1258;98094;-72
2023/02/07 09:56:32;;;;;;;27.50;14.70;;;;;;;0.27;78.95;102428.95;103091;1260;139483;-71
2023/02/07 09:59:05;;;;;;;27.30;14.10;;;;;;;0.29;78.86;102426.84;103179;1258;97799;-72
2023/02/07 10:01:49;;;;;;;26.10;14.10;;;;;;;0.31;78.72;102425.88;102981;1254;138557;-71
2023/02/07 10:04:29;;;;;;;25.20;13.70;;;;;;;0.33;78.68;102430.08;102448;1254;1003520;-72
2023/02/07 10:07:00;;;;;;;24.40;14.10;;;;;;;0.36;78.49;102427.14;103157;1259;139113;-72
2023/02/07 10:09:33;;;;;;;26.10;14.40;;;;;;;0.39;78.53;102427.42;102457;1254;1002926;-72
2023/02/07 10:12:40;;;;;;;25.90;13.70;;;;;;;0.43;78.28;102422.11;103075;1260;97792;-74
2023/02/07 10:15:42;;;;;;;26.40;14.10;;;;;;;0.46;78.41;102424.83;103213;1254;111330;-76
2023/02/07 10:18:29;;;;;;;25.10;13.30;;;;;;;0.49;78.37;102424.63;103015;1254;107262;-77
2023/02/07 10:21:10;;;;;;;26.60;13.40;;;;;;;0.53;78.14;102418.48;102988;1254;138637;-78
2023/02/07 10:23:47;;;;;;;24.10;14.90;;;;;;;0.56;78.06;102421.34;103308;1254;107346;-79
2023/02/07 10:26:32;;;;;;;24.50;13.80;;;;;;;0.60;78.11;102420.98;103101;1254;138576;-76
2023/02/07 10:29:19;;;;;;;25.40;14.20;;;;;;;0.64;78.09;102419.09;103209;1260;110091;-78
2023/02/07 10:31:51;;;;;;;24.40;13.60;;;;;;;0.68;78.01;102420.29;103105;1260;138538;-80
2023/02/07 10:34:22;;;;;;;23.80;13.50;;;;;;;0.72;78.00;102414.83;103217;1260;97941;-78
2023/02/07 10:37:00;;;;;;;24.40;13.60;;;;;;;0.77;77.84;102410.77;103114;1260;138718;-78
2023/02/07 10:39:54;;;;;;;25.00;13.60;;;;;;;0.81;77.58;102408.35;103126;1258;97896;-79
2023/02/07 10:42:36;;;;;;;23.90;13.40;;;;;;;0.81;77.37;102407.17;103181;1254;110608;-78
2023/02/07 10:45:03;;;;;;;25.60;13.80;;;;;;;0.81;77.39;102403.89;103027;1258;138632;-79
2023/02/07 10:47:44;;;;;;;25.10;14.30;;;;;;;0.80;77.32;102399.26;102365;1254;1003461;-75
2023/02/07 10:50:15;;;;;;;29.20;15.80;;;;;;;0.81;77.37;102401.85;103188;1255;138664;-75
2023/02/07 10:53:02;;;;;;;27.00;14.50;;;;;;;0.82;77.14;102395.36;103261;1254;97806;-75
2023/02/07 10:55:45;;;;;;;24.10;13.70;;;;;;;0.83;77.28;102391.65;102394;1254;1002661;-77
2023/02/07 10:58:17;;;;;;;25.30;13.80;;;;;;;0.86;77.22;102391.09;102490;1258;1003089;-77
2023/02/07 11:00:55;;;;;;;25.00;14.10;;;;;;;0.88;77.05;102390.00;103259;1254;98338;-77
2023/02/07 11:03:24;;;;;;;21.40;12.50;;;;;;;0.93;77.12;102386.75;103093;1254;106926;-77
2023/02/07 11:06:06;;;;;;;25.60;13.80;;;;;;;0.96;77.06;102384.64;102979;1257;97804;-82
2023/02/07 11:08:44;;;;;;;21.90;14.10;;;;;;;0.97;76.82;102384.54;103040;1259;138820;-79
2023/02/07 11:11:30;;;;;;;26.50;14.80;;;;;;;1.00;76.78;102381.21;102975;1254;107657;-73
2023/02/07 11:14:05;;;;;;;25.70;14.80;;;;;;;1.03;76.72;102374.33;102544;1259;1002855;-73
2023/02/07 11:16:33;;;;;;;23.80;13.80;;;;;;;1.07;76.61;102380.80;103215;1254;107260;-72
2023/02/07 11:19:03;;;;;;;21.20;13.40;;;;;;;1.09;76.42;102383.15;103026;1254;138753;-73
2023/02/07 11:21:39;;;;;;;23.50;14.40;;;;;;;1.09;76.40;102376.31;103226;1259;110920;-72
2023/02/07 11:24:13;;;;;;;25.80;13.70;;;;;;;1.13;76.42;102382.64;103073;1254;108026;-79
2023/02/07 11:26:50;;;;;;;24.40;14.40;;;;;;;1.17;76.46;102381.77;103008;1254;138607;-80
2023/02/07 11:29:21;;;;;;;25.00;14.10;;;;;;;1.22;76.56;102385.20;103835;1254;107960;-80